createdAt,value
2023-03-16T15:41:18.903Z,100817.36
2023-03-16T15:43:23.289Z,100814.16
2023-03-16T15:45:27.665Z,100813.18
2023-03-16T15:47:32.160Z,100819.23
2023-03-16T15:49:48.269Z,100815.56
2023-03-16T15:51:52.743Z,100816.03
2023-03-16T15:53:57.165Z,100818.36
2023-03-16T15:56:01.764Z,100821.04
2023-03-16T15:58:06.326Z,100820.34
2023-03-16T16:00:11.147Z,100821.42
2023-03-16T16:02:15.562Z,100824.02
2023-03-16T16:04:20.208Z,100823.67
2023-03-16T16:06:24.712Z,100822.78
2023-03-16T16:08:29.430Z,100822.64
2023-03-16T16:10:33.833Z,100821.48
2023-03-16T16:12:38.253Z,100825.6
2023-03-16T16:14:42.633Z,100827.53
2023-03-16T16:16:47.337Z,100832.47
2023-03-16T16:18:51.879Z,100831.88
2023-03-16T16:20:56.472Z,100830.23
2023-03-16T16:23:01.143Z,100829.81
2023-03-16T16:25:05.601Z,100831.2
2023-03-16T16:27:10.051Z,100830.55
2023-03-16T16:29:14.454Z,100827.44
2023-03-16T16:31:19.095Z,100832.45
2023-03-16T16:33:23.562Z,100825.77
2023-03-16T16:35:29.384Z,100833
2023-03-16T16:37:34.443Z,100828.08
2023-03-16T16:39:39.048Z,100828.16
2023-03-16T16:41:43.486Z,100830.44
2023-03-16T16:43:48.002Z,100832.8
2023-03-16T16:45:52.736Z,100835.09
2023-03-16T16:47:57.306Z,100842.48
2023-03-16T16:50:02.247Z,100842.89
2023-03-16T16:52:06.809Z,100843.55
2023-03-16T16:54:11.380Z,100844.3
2023-03-16T16:56:15.819Z,100840.27
2023-03-16T16:58:25.891Z,100846.79
2023-03-16T17:00:30.384Z,100843.85
2023-03-16T17:02:37.978Z,100848.98
2023-03-16T17:04:45.794Z,100851.55
2023-03-16T17:06:50.496Z,100848.23
2023-03-16T17:08:55.002Z,100847.36
2023-03-16T17:10:59.442Z,100846.87
2023-03-16T17:13:04.011Z,100849.91
2023-03-16T17:15:08.630Z,100852.13
2023-03-16T17:17:13.308Z,100853.97
2023-03-16T17:19:17.780Z,100853.74
2023-03-16T17:21:22.301Z,100856.95
2023-03-16T17:23:26.686Z,100858.98
2023-03-16T17:25:31.722Z,100858.98
2023-03-16T17:27:36.102Z,100862.56
2023-03-16T17:29:40.547Z,100862.83
2023-03-16T17:31:44.992Z,100864.79
2023-03-16T17:33:49.350Z,100866.39
2023-03-16T17:35:53.994Z,100871.03
2023-03-16T17:37:58.496Z,100873.09
2023-03-16T17:40:03.171Z,100871.03
2023-03-16T17:42:07.746Z,100874.02
2023-03-16T17:44:12.291Z,100860.59
2023-03-16T17:46:18.839Z,100864.19
2023-03-16T17:48:23.275Z,100862.55
2023-03-16T17:50:28.039Z,100864.01
2023-03-16T17:52:32.965Z,100863.26
2023-03-16T17:54:37.388Z,100868.75
2023-03-16T17:56:41.848Z,100867.52
2023-03-16T17:58:46.294Z,100870.8
2023-03-16T18:00:50.714Z,100872.35
2023-03-16T18:02:55.305Z,100872
2023-03-16T18:04:59.712Z,100872.08
2023-03-16T18:07:04.116Z,100873.31
2023-03-16T18:09:08.535Z,100874.99
2023-03-16T18:11:12.949Z,100874.64
2023-03-16T18:13:17.381Z,100878.75
2023-03-16T18:15:21.816Z,100880.64
2023-03-16T18:17:26.293Z,100873.1
2023-03-16T18:19:30.704Z,100872.25
2023-03-16T18:21:35.131Z,100872.8
2023-03-16T18:23:39.523Z,100875.86
2023-03-16T18:25:43.981Z,100874.38
2023-03-16T18:27:48.476Z,100875.06
2023-03-16T18:29:52.908Z,100879.95
2023-03-16T18:31:57.357Z,100882.31
2023-03-16T18:34:01.895Z,100879.47
2023-03-16T18:36:06.699Z,100878.67
2023-03-16T18:38:11.329Z,100878.91
2023-03-16T18:40:15.917Z,100880.02
2023-03-16T18:42:20.644Z,100874.95
2023-03-16T18:44:25.263Z,100882.91
2023-03-16T18:46:29.927Z,100874.19
2023-03-16T18:48:34.533Z,100873.64
2023-03-16T18:50:39.002Z,100870.25
2023-03-16T18:52:43.429Z,100871.61
2023-03-16T18:54:47.840Z,100872.06
2023-03-16T18:56:52.264Z,100868.08
2023-03-16T18:58:56.695Z,100869.3
2023-03-16T19:01:01.371Z,100869.33
2023-03-16T19:03:05.842Z,100874.58
2023-03-16T19:05:10.329Z,100873.86
2023-03-16T19:07:14.740Z,100877.09
2023-03-16T19:09:19.261Z,100877.33
2023-03-16T19:11:23.670Z,100879.69
2023-03-16T19:13:28.205Z,100883.3
2023-03-16T19:15:33.648Z,100875.97
2023-03-16T19:17:38.192Z,100872.64
2023-03-16T19:19:42.619Z,100869.73
2023-03-16T19:21:47.002Z,100874.05
2023-03-16T19:23:51.428Z,100874.02
2023-03-16T19:25:55.889Z,100878.22
2023-03-16T19:28:00.465Z,100875.31
2023-03-16T19:30:04.960Z,100874.45
2023-03-16T19:32:09.660Z,100876.5
2023-03-16T19:34:14.186Z,100880.53
2023-03-16T19:36:18.854Z,100879.42
2023-03-16T19:38:23.499Z,100880.15
2023-03-16T19:40:27.969Z,100878.95
2023-03-16T19:42:32.666Z,100882.45
2023-03-16T19:44:37.313Z,100880.16
2023-03-16T19:46:41.721Z,100888.16
2023-03-16T19:48:46.131Z,100889.28
2023-03-16T19:50:50.598Z,100885.52
2023-03-16T19:52:55.081Z,100885.63
2023-03-16T19:54:59.706Z,100889.96
2023-03-16T19:57:05.730Z,100893.52
2023-03-16T19:59:10.159Z,100890.53
2023-03-16T20:01:14.785Z,100896.48
2023-03-16T20:03:19.404Z,100901.59
2023-03-16T20:05:23.835Z,100903.09
2023-03-16T20:07:28.410Z,100906.6
2023-03-16T20:09:32.863Z,100912.72
2023-03-16T20:11:38.113Z,100911.91
2023-03-16T20:13:42.527Z,100915.42
2023-03-16T20:15:47.030Z,100909.42
2023-03-16T20:17:53.097Z,100910.23
2023-03-16T20:19:57.739Z,100905.88
2023-03-16T20:22:02.174Z,100904.77
2023-03-16T20:24:08.381Z,100898.82
2023-03-16T20:26:12.904Z,100900.23
2023-03-16T20:28:17.320Z,100901.17
2023-03-16T20:30:21.774Z,100899.3
2023-03-16T20:32:26.319Z,100893.44
2023-03-16T20:34:30.990Z,100892.31
2023-03-16T20:36:35.422Z,100890.07
2023-03-16T20:38:39.888Z,100891.65
2023-03-16T20:40:44.260Z,100890.59
2023-03-16T20:42:48.744Z,100889.14
2023-03-16T20:44:53.389Z,100883.75
2023-03-16T20:46:57.874Z,100888.77
2023-03-16T20:49:02.418Z,100883.66
2023-03-16T20:51:06.887Z,100884.27
2023-03-16T20:53:11.292Z,100882.02
2023-03-16T20:55:15.846Z,100888.95
2023-03-16T20:57:20.394Z,100888.95
2023-03-16T20:59:25.037Z,100884.23
2023-03-16T21:01:29.617Z,100886.39
2023-03-16T21:03:34.277Z,100890.24
2023-03-16T21:05:38.725Z,100887.92
2023-03-16T21:07:43.164Z,100884.84
2023-03-16T21:09:51.381Z,100878.98
2023-03-16T21:11:55.787Z,100881.06
2023-03-16T21:14:00.202Z,100877.66
2023-03-16T21:16:04.813Z,100874.17
2023-03-16T21:18:09.345Z,100874.75
2023-03-16T21:20:14.034Z,100873.69
2023-03-16T21:22:18.529Z,100861.58
2023-03-16T21:24:22.983Z,100859.09
2023-03-16T21:26:27.416Z,100854.14
2023-03-16T21:28:31.880Z,100849.02
2023-03-16T21:30:36.313Z,100847.59
2023-03-16T21:32:40.837Z,100843.33
2023-03-16T21:34:45.434Z,100841.63
2023-03-16T21:36:49.963Z,100837.05
2023-03-16T21:38:54.442Z,100834.13
2023-03-16T21:40:58.917Z,100843.73
2023-03-16T21:43:03.446Z,100846.05
2023-03-16T21:45:07.879Z,100841.89
2023-03-16T21:47:12.398Z,100843.22
2023-03-16T21:49:17.195Z,100840.73
2023-03-16T21:51:21.658Z,100842.06
2023-03-16T21:53:26.064Z,100836.23
2023-03-16T21:55:30.875Z,100839.38
2023-03-16T21:57:35.923Z,100842.91
2023-03-16T21:59:40.358Z,100840.39
2023-03-16T22:02:02.469Z,100834.93
2023-03-16T22:04:07.080Z,100831.59
2023-03-16T22:06:13.705Z,100842.91
2023-03-16T22:08:18.097Z,100838.34
2023-03-16T22:10:22.536Z,100841.64
2023-03-16T22:12:26.968Z,100841.44
2023-03-16T22:14:31.413Z,100843.72
2023-03-16T22:16:36.038Z,100843.23
2023-03-16T22:18:40.654Z,100844.94
2023-03-16T22:20:45.076Z,100848.86
2023-03-16T22:22:49.512Z,100844.36
2023-03-16T22:24:54.009Z,100843.64
2023-03-16T22:26:58.411Z,100841.73
2023-03-16T22:29:02.982Z,100834.47
2023-03-16T22:31:07.428Z,100840.5
2023-03-16T22:33:12.001Z,100841.25
2023-03-16T22:35:16.436Z,100846.08
2023-03-16T22:37:21.047Z,100850
2023-03-16T22:39:25.486Z,100850.69
2023-03-16T22:41:29.904Z,100847.34
2023-03-16T22:43:34.289Z,100842.25
2023-03-16T22:45:38.849Z,100838.88
2023-03-16T22:47:43.351Z,100838.59
